Adair, Iowa
Current Conditions -  °F | °C
As of 6:15 AM on Sunday 21 Dec 2014 (Local Time) from KADU Reporting Station
Haze Haze  
Wind Chill: 26°   Ceiling: 300
Heat Index: 36°   Visibility: 1.5mi
Dew Point: 30°   Wind: 15mph
Humidity: 81%   Direction: 180°S
Pressure: 29.93"   Gusts: 22mph
Location:  41.5°N, 94.64°W
Report Text: KADU 211215Z AUTO 18013G19KT 1 1/2SM HZ OVC003 02/M01 A2993 RMK AO2
Loading
Personal Weather Stations






























Interactive Weather Map New forecast layout! Learn more

10-Day Weather Forecast

Advertisements
Track Severe Weather on mobile